createdAt,value
2022-12-23T00:04:05.307Z,15.90
2022-12-23T00:09:08.150Z,17.40
2022-12-23T00:14:29.673Z,14.60
2022-12-23T00:19:32.402Z,14.90
2022-12-23T00:24:35.103Z,14.90
2022-12-23T00:29:37.846Z,15.00
2022-12-23T00:34:40.972Z,15.30
2022-12-23T00:40:06.427Z,14.30
2022-12-23T00:45:16.087Z,14.90
2022-12-23T00:50:19.079Z,14.20
2022-12-23T00:55:23.987Z,13.80
2022-12-23T01:00:45.778Z,14.80
2022-12-23T01:05:48.580Z,15.40
2022-12-23T01:10:51.454Z,14.10
2022-12-23T01:16:03.759Z,15.70
2022-12-23T01:21:08.574Z,17.20
2022-12-23T01:26:11.588Z,17.10
2022-12-23T01:31:14.355Z,16.60
2022-12-23T01:36:17.201Z,15.80
2022-12-23T01:41:42.697Z,16.30
2022-12-23T01:46:46.342Z,17.40
2022-12-23T01:51:50.447Z,17.50
2022-12-23T01:56:54.344Z,16.80
2022-12-23T02:02:15.847Z,17.30
2022-12-23T02:07:38.105Z,17.00
2022-12-23T02:13:28.349Z,18.00
2022-12-23T02:19:01.862Z,17.40
2022-12-23T02:24:32.712Z,17.00
2022-12-23T02:30:18.850Z,17.00
2022-12-23T02:35:39.133Z,17.50
2022-12-23T02:41:06.949Z,17.30
2022-12-23T02:46:38.638Z,16.90
2022-12-23T02:51:48.200Z,16.50
2022-12-23T02:56:51.080Z,16.50
2022-12-23T03:01:54.221Z,16.80
2022-12-23T03:06:57.099Z,15.80
2022-12-23T03:12:18.208Z,15.10
2022-12-23T03:17:28.612Z,16.50
2022-12-23T03:22:37.177Z,15.20
2022-12-23T03:33:13.438Z,16.30
2022-12-23T03:38:16.957Z,15.70
2022-12-23T03:43:24.721Z,15.80
2022-12-23T03:48:39.738Z,14.40
2022-12-23T03:53:49.458Z,14.90
2022-12-23T03:58:59.109Z,14.20
2022-12-23T04:04:29.169Z,14.80
2022-12-23T04:09:32.242Z,14.10
2022-12-23T04:14:35.933Z,15.20
2022-12-23T04:19:38.819Z,14.40
2022-12-23T04:24:42.016Z,14.90
2022-12-23T04:29:44.989Z,15.20
2022-12-23T04:34:47.997Z,14.60
2022-12-23T04:39:50.723Z,15.00
2022-12-23T04:44:53.478Z,15.80
2022-12-23T04:49:56.234Z,16.50
2022-12-23T04:54:58.949Z,17.20
2022-12-23T05:00:04.108Z,16.10
2022-12-23T05:05:07.344Z,16.20
2022-12-23T05:10:10.728Z,15.70
2022-12-23T05:15:13.781Z,15.60
2022-12-23T05:20:17.993Z,16.40
2022-12-23T05:25:20.813Z,15.60
2022-12-23T05:30:23.536Z,15.00
2022-12-23T05:35:26.991Z,15.50
2022-12-23T05:40:33.580Z,15.40
2022-12-23T05:45:37.113Z,15.50
2022-12-23T05:50:39.999Z,14.50
2022-12-23T05:55:42.776Z,15.30
2022-12-23T06:00:45.554Z,14.00
2022-12-23T06:05:51.985Z,15.10
2022-12-23T06:10:54.802Z,14.70
2022-12-23T06:15:57.557Z,14.10
2022-12-23T06:21:00.331Z,14.00
2022-12-23T06:26:03.510Z,16.30
2022-12-23T06:31:06.449Z,14.60
2022-12-23T06:36:09.518Z,14.10
2022-12-23T06:41:12.386Z,14.90
2022-12-23T06:46:15.170Z,15.60
2022-12-23T06:51:17.988Z,15.20
2022-12-23T06:56:20.726Z,15.30
2022-12-23T07:01:23.467Z,15.00
2022-12-23T07:06:26.265Z,15.30
2022-12-23T07:11:29.188Z,15.50
2022-12-23T07:16:31.950Z,15.10
2022-12-23T07:21:36.697Z,15.40
2022-12-23T07:26:39.476Z,16.40
2022-12-23T07:31:42.458Z,15.70
2022-12-23T07:36:45.216Z,15.40
2022-12-23T07:41:47.941Z,16.90
2022-12-23T07:46:50.805Z,16.60
2022-12-23T07:51:53.981Z,16.10
2022-12-23T07:56:58.182Z,17.00
2022-12-23T08:02:01.097Z,16.60
2022-12-23T08:07:03.905Z,16.00
2022-12-23T08:12:06.998Z,16.70
2022-12-23T08:17:09.767Z,17.40
2022-12-23T08:22:12.692Z,18.30
2022-12-23T08:27:16.365Z,17.40
2022-12-23T08:32:19.251Z,17.90
2022-12-23T08:37:23.053Z,17.50
2022-12-23T08:42:25.871Z,19.20
2022-12-23T08:47:28.604Z,18.40
2022-12-23T08:52:32.748Z,17.70
2022-12-23T08:57:35.497Z,17.80
2022-12-23T09:02:38.592Z,18.90
2022-12-23T09:07:41.587Z,20.10
2022-12-23T09:12:44.330Z,19.50
2022-12-23T09:17:47.096Z,19.50
2022-12-23T09:22:50.837Z,19.40
2022-12-23T09:27:53.606Z,19.60
2022-12-23T09:32:56.377Z,20.10
2022-12-23T09:37:59.317Z,18.10
2022-12-23T09:43:32.858Z,18.90
2022-12-23T09:48:46.097Z,20.10
2022-12-23T09:54:20.074Z,19.50
2022-12-23T09:59:28.453Z,19.10
2022-12-23T10:04:42.249Z,20.40
2022-12-23T10:09:46.518Z,18.50
2022-12-23T10:14:49.426Z,17.90
2022-12-23T10:19:52.263Z,19.90
2022-12-23T10:24:55.744Z,19.00
2022-12-23T10:30:19.993Z,18.30
2022-12-23T10:35:52.724Z,19.60
2022-12-23T10:41:11.446Z,17.90
2022-12-23T10:47:00.902Z,18.60
2022-12-23T10:52:09.490Z,19.90
2022-12-23T11:02:15.345Z,19.80
2022-12-23T11:07:43.954Z,19.20
2022-12-23T11:12:52.967Z,21.90
2022-12-23T11:18:14.345Z,20.20
2022-12-23T11:23:29.080Z,19.30
2022-12-23T11:28:32.160Z,18.90
2022-12-23T11:33:41.146Z,21.10
2022-12-23T11:39:12.264Z,19.90
2022-12-23T11:44:28.811Z,21.20
2022-12-23T11:49:32.103Z,22.40
2022-12-23T11:54:35.360Z,23.40
2022-12-23T11:59:43.483Z,23.20
2022-12-23T12:04:55.380Z,22.10
2022-12-23T12:09:59.439Z,23.10
2022-12-23T12:15:02.219Z,22.30
2022-12-23T12:20:14.845Z,23.60
2022-12-23T12:25:31.349Z,23.10
2022-12-23T12:30:50.666Z,23.50
2022-12-23T12:36:05.090Z,24.10
2022-12-23T12:41:43.817Z,23.50
2022-12-23T12:46:49.923Z,22.00
2022-12-23T12:52:08.369Z,23.10
2022-12-23T12:57:19.664Z,22.80
2022-12-23T13:02:47.266Z,22.80
2022-12-23T13:08:15.246Z,22.30
2022-12-23T13:13:54.973Z,23.20
2022-12-23T13:19:31.968Z,22.70
2022-12-23T13:24:48.191Z,23.90
2022-12-23T13:30:18.980Z,24.30
2022-12-23T13:35:46.732Z,21.70
2022-12-23T13:41:16.393Z,20.70
2022-12-23T13:46:43.501Z,20.20
2022-12-23T13:52:16.420Z,19.20
2022-12-23T13:58:13.595Z,20.00
2022-12-23T14:03:24.402Z,18.30
2022-12-23T14:08:41.283Z,19.30
2022-12-23T14:13:55.319Z,19.20
2022-12-23T14:19:37.999Z,18.10
2022-12-23T14:25:05.201Z,18.00
2022-12-23T14:30:16.988Z,18.90
2022-12-23T14:35:27.147Z,17.90
2022-12-23T14:40:39.289Z,17.80
2022-12-23T14:45:42.731Z,17.60
2022-12-23T14:50:59.018Z,17.60
2022-12-23T14:56:08.004Z,16.70
2022-12-23T15:01:42.112Z,16.30
2022-12-23T15:07:00.266Z,14.50
2022-12-23T15:12:11.915Z,13.80
2022-12-23T15:17:35.504Z,14.20
2022-12-23T15:22:39.121Z,13.90
2022-12-23T15:27:41.859Z,15.00
2022-12-23T15:32:48.131Z,15.50
2022-12-23T15:37:51.498Z,15.60
2022-12-23T15:42:54.547Z,14.60
2022-12-23T15:47:57.312Z,13.50
2022-12-23T15:53:04.336Z,14.40
2022-12-23T15:58:07.141Z,12.90
2022-12-23T16:03:34.221Z,12.90
2022-12-23T16:08:38.064Z,14.80
2022-12-23T16:13:47.870Z,12.60
2022-12-23T16:18:52.279Z,14.00
2022-12-23T16:23:55.520Z,13.20
2022-12-23T16:28:59.409Z,12.80
2022-12-23T16:34:05.279Z,12.80
2022-12-23T16:39:20.250Z,11.80
2022-12-23T16:44:23.076Z,13.50
2022-12-23T16:49:34.005Z,12.80
2022-12-23T16:54:37.162Z,13.80
2022-12-23T16:59:41.261Z,13.00
2022-12-23T17:04:44.412Z,13.20
2022-12-23T17:09:47.216Z,13.20
2022-12-23T17:14:50.067Z,13.00
2022-12-23T17:19:52.852Z,12.00
2022-12-23T17:24:55.617Z,12.80
2022-12-23T17:29:58.354Z,12.60
2022-12-23T17:35:01.135Z,13.40
2022-12-23T17:40:04.544Z,13.30
2022-12-23T17:45:25.458Z,13.20
2022-12-23T17:50:28.327Z,14.80
2022-12-23T17:55:34.714Z,13.40
2022-12-23T18:00:38.586Z,12.80
2022-12-23T18:05:41.417Z,12.00
2022-12-23T18:10:44.544Z,12.80
2022-12-23T18:15:47.782Z,13.70
2022-12-23T18:20:53.600Z,13.30
2022-12-23T18:25:56.787Z,14.80
2022-12-23T18:30:59.618Z,15.50
2022-12-23T18:36:02.398Z,16.50
2022-12-23T18:41:05.199Z,15.30
2022-12-23T18:46:08.493Z,16.40
2022-12-23T18:51:16.413Z,16.30
2022-12-23T18:56:21.368Z,15.30
2022-12-23T19:01:24.451Z,16.50
2022-12-23T19:06:27.288Z,14.90
2022-12-23T19:11:30.153Z,14.40
2022-12-23T19:16:32.940Z,14.70
2022-12-23T19:21:36.039Z,11.40
2022-12-23T19:26:38.773Z,14.40
2022-12-23T19:31:41.724Z,13.80
2022-12-23T19:36:45.594Z,13.20
2022-12-23T19:41:51.471Z,14.10
2022-12-23T19:46:54.376Z,14.80
2022-12-23T19:51:57.285Z,15.70
2022-12-23T19:57:00.255Z,14.30
2022-12-23T20:02:03.110Z,15.30
2022-12-23T20:07:05.886Z,15.20
2022-12-23T20:12:10.961Z,15.20
2022-12-23T20:17:13.724Z,14.80
2022-12-23T20:22:16.848Z,14.90
2022-12-23T20:27:25.984Z,13.20
2022-12-23T20:32:30.606Z,14.00
2022-12-23T20:37:33.333Z,14.50
2022-12-23T20:42:36.682Z,15.70
2022-12-23T20:47:39.667Z,15.80
2022-12-23T20:52:42.463Z,16.50
2022-12-23T20:57:45.743Z,16.80
2022-12-23T21:02:48.568Z,17.10
2022-12-23T21:07:51.772Z,17.60
2022-12-23T21:12:54.501Z,19.30
2022-12-23T21:17:57.209Z,17.50
2022-12-23T21:22:59.965Z,16.50
2022-12-23T21:28:02.699Z,17.60
2022-12-23T21:33:05.459Z,17.90
2022-12-23T21:38:08.235Z,16.60
2022-12-23T21:43:11.268Z,20.40
2022-12-23T21:48:14.337Z,20.40
2022-12-23T21:53:17.101Z,20.70
2022-12-23T21:58:20.401Z,20.20
2022-12-23T22:03:23.651Z,20.30
2022-12-23T22:08:26.381Z,21.70
2022-12-23T22:13:29.109Z,20.70
2022-12-23T22:18:31.936Z,20.40
2022-12-23T22:23:35.798Z,21.90
2022-12-23T22:28:39.329Z,24.40
2022-12-23T22:33:42.110Z,23.40
2022-12-23T22:38:44.817Z,22.90
2022-12-23T22:43:47.679Z,21.50
2022-12-23T22:48:51.290Z,22.40
2022-12-23T22:53:54.479Z,23.70
2022-12-23T22:58:57.273Z,24.60
2022-12-23T23:04:01.204Z,24.10
2022-12-23T23:09:05.786Z,21.80
2022-12-23T23:14:08.724Z,25.30
2022-12-23T23:19:12.380Z,23.00
2022-12-23T23:24:15.111Z,21.30
2022-12-23T23:29:17.923Z,23.70
2022-12-23T23:34:20.655Z,23.40
2022-12-23T23:39:23.330Z,22.20
2022-12-23T23:44:26.051Z,21.70
2022-12-23T23:49:29.730Z,21.20
2022-12-23T23:54:32.450Z,21.80
2022-12-23T23:59:37.528Z,25.40
